createdAt,value
2022-11-16T07:49:33.836Z,8.48
2022-11-16T07:52:00.841Z,8.48
2022-11-16T07:54:27.572Z,7.91
2022-11-16T07:56:54.371Z,7.91
2022-11-16T07:59:21.260Z,7.92
2022-11-16T08:01:48.431Z,7.91
2022-11-16T08:04:17.553Z,7.87
2022-11-16T08:06:44.820Z,7.92
2022-11-16T08:09:12.001Z,7.93
2022-11-16T08:11:39.220Z,7.81
2022-11-16T08:14:06.041Z,7.87
2022-11-16T08:16:33.444Z,7.94
2022-11-16T08:19:02.379Z,7.98
2022-11-16T08:21:29.232Z,8.02
2022-11-16T08:23:58.682Z,8.02
2022-11-16T08:26:26.306Z,8.03
2022-11-16T08:28:54.041Z,8.06
2022-11-16T08:31:24.570Z,8.05
2022-11-16T08:33:54.400Z,8.06
2022-11-16T08:36:21.699Z,8.17
2022-11-16T08:38:50.600Z,8.19
2022-11-16T08:41:18.571Z,8.18
2022-11-16T08:43:47.300Z,8.26
2022-11-16T08:46:14.860Z,8.28
2022-11-16T08:48:41.753Z,8.24
2022-11-16T08:51:19.331Z,8.29
2022-11-16T08:53:48.501Z,8.32
2022-11-16T08:56:17.627Z,8.25
2022-11-16T08:58:47.073Z,8.33
2022-11-16T09:01:17.410Z,8.34
2022-11-16T09:03:44.404Z,8.30
2022-11-16T09:06:12.289Z,8.20
2022-11-16T09:08:40.551Z,8.18
2022-11-16T09:11:09.103Z,8.26
2022-11-16T09:13:36.010Z,8.23
2022-11-16T09:16:03.531Z,8.23
2022-11-16T09:18:30.886Z,8.25
2022-11-16T09:20:58.218Z,8.30
2022-11-16T09:23:25.821Z,8.25
2022-11-16T09:25:53.402Z,8.31
2022-11-16T09:28:22.678Z,8.29
2022-11-16T09:30:51.376Z,8.34
2022-11-16T09:33:18.433Z,8.33
2022-11-16T09:35:45.489Z,8.38
2022-11-16T09:38:17.673Z,8.43
2022-11-16T09:40:51.540Z,8.42
2022-11-16T09:43:18.284Z,8.41
2022-11-16T09:46:05.469Z,8.40
2022-11-16T09:48:36.418Z,8.40
2022-11-16T09:51:08.357Z,8.44
2022-11-16T09:53:50.993Z,8.36
2022-11-16T09:56:26.368Z,8.35
2022-11-16T09:59:01.167Z,8.43
2022-11-16T10:01:54.617Z,8.46
2022-11-16T10:05:06.550Z,8.45
2022-11-16T10:07:41.785Z,8.47
2022-11-16T10:10:16.978Z,8.44
2022-11-16T10:13:00.311Z,8.49
2022-11-16T10:15:42.270Z,8.50
2022-11-16T10:18:08.982Z,8.53
2022-11-16T10:21:21.520Z,8.51
2022-11-16T10:23:54.416Z,8.48
2022-11-16T10:26:48.290Z,8.53
2022-11-16T10:29:37.802Z,8.54
2022-11-16T10:32:17.481Z,8.56
2022-11-16T10:34:44.227Z,8.58
2022-11-16T10:37:13.375Z,8.59
2022-11-16T10:39:41.179Z,8.68
2022-11-16T10:42:21.620Z,8.68
2022-11-16T10:44:58.701Z,8.73
2022-11-16T10:47:36.848Z,8.72
2022-11-16T10:50:19.945Z,8.73
2022-11-16T10:52:46.676Z,8.73
2022-11-16T10:55:24.473Z,8.75
2022-11-16T10:57:58.266Z,8.71
2022-11-16T11:00:44.307Z,8.76
2022-11-16T11:03:12.134Z,8.80
2022-11-16T11:05:53.372Z,8.77
2022-11-16T11:08:31.151Z,8.82
2022-11-16T11:11:25.573Z,8.82
2022-11-16T11:14:11.652Z,8.81
2022-11-16T11:16:41.868Z,8.84
2022-11-16T11:19:19.101Z,8.82
2022-11-16T11:21:47.406Z,8.79
2022-11-16T11:24:43.232Z,8.72
2022-11-16T11:27:04.763Z,8.76
2022-11-16T11:29:35.132Z,8.76
2022-11-16T11:32:19.323Z,8.77
2022-11-16T11:35:00.398Z,8.78
2022-11-16T11:37:36.512Z,8.79
2022-11-16T11:40:24.868Z,8.81
2022-11-16T11:42:56.364Z,8.87
2022-11-16T11:45:27.909Z,8.82
2022-11-16T11:48:06.972Z,8.86
2022-11-16T11:50:50.076Z,8.87
2022-11-16T11:53:35.666Z,8.89
2022-11-16T11:56:03.156Z,8.89
2022-11-16T11:58:33.028Z,8.86
2022-11-16T12:01:22.314Z,8.85
2022-11-16T12:04:18.437Z,8.85
2022-11-16T12:07:03.699Z,8.81
2022-11-16T12:09:40.872Z,8.83
2022-11-16T12:12:22.721Z,8.84
2022-11-16T12:15:45.905Z,8.77
2022-11-16T12:18:27.107Z,8.82
2022-11-16T12:20:59.537Z,8.81
2022-11-16T12:23:49.028Z,8.78
2022-11-16T12:26:24.610Z,8.77
2022-11-16T12:29:00.535Z,8.77
2022-11-16T12:31:42.482Z,8.75
2022-11-16T12:34:37.050Z,8.67
2022-11-16T12:37:16.129Z,8.67
2022-11-16T12:40:20.705Z,8.72
2022-11-16T12:42:57.428Z,8.73
2022-11-16T12:45:32.404Z,8.70
2022-11-16T12:48:05.184Z,8.74
2022-11-16T12:50:45.364Z,8.73
2022-11-16T12:53:34.884Z,8.73
2022-11-16T12:56:16.904Z,8.76
2022-11-16T12:58:54.476Z,8.78
2022-11-16T13:01:44.668Z,8.81
2022-11-16T13:04:18.025Z,8.77
2022-11-16T13:06:54.068Z,8.84
2022-11-16T13:09:25.683Z,8.85
2022-11-16T13:11:56.054Z,8.87
2022-11-16T13:14:32.731Z,8.87
2022-11-16T13:17:02.620Z,8.87
2022-11-16T13:19:30.134Z,8.84
2022-11-16T13:22:07.597Z,8.83
2022-11-16T13:24:49.711Z,8.87
2022-11-16T13:27:31.157Z,8.84
2022-11-16T13:30:19.286Z,8.85
2022-11-16T13:33:26.783Z,8.84
2022-11-16T13:35:53.703Z,8.87
2022-11-16T13:38:53.192Z,8.84
2022-11-16T13:41:37.376Z,8.84
2022-11-16T13:44:13.201Z,8.74
2022-11-16T13:46:55.692Z,8.79
2022-11-16T13:49:27.668Z,8.81
2022-11-16T13:52:17.198Z,8.78
2022-11-16T13:54:52.152Z,8.79
2022-11-16T13:57:27.208Z,8.79
2022-11-16T14:00:03.955Z,8.81
2022-11-16T14:02:35.073Z,8.78
2022-11-16T14:05:33.998Z,8.81
2022-11-16T14:08:24.009Z,8.78
2022-11-16T14:10:50.688Z,8.77
2022-11-16T14:13:47.288Z,8.76
2022-11-16T14:16:20.152Z,8.78
2022-11-16T14:18:58.973Z,8.77
2022-11-16T14:21:26.755Z,8.75
2022-11-16T14:24:21.673Z,8.73
2022-11-16T14:27:06.436Z,8.74
2022-11-16T14:30:02.648Z,8.76
2022-11-16T14:32:36.988Z,8.76
2022-11-16T14:35:22.796Z,8.76
2022-11-16T14:37:58.547Z,8.76
2022-11-16T14:40:25.843Z,8.62
2022-11-16T14:43:20.012Z,8.72
2022-11-16T14:45:52.986Z,8.70
2022-11-16T14:48:22.186Z,8.67
2022-11-16T14:51:10.775Z,8.71
2022-11-16T14:53:41.384Z,8.63
2022-11-16T14:56:17.087Z,8.64
2022-11-16T14:59:01.430Z,8.63
2022-11-16T15:01:39.024Z,8.64
2022-11-16T15:04:11.219Z,8.63
2022-11-16T15:07:03.767Z,8.64
2022-11-16T15:09:37.796Z,8.65
2022-11-16T15:12:26.239Z,8.62
2022-11-16T15:14:56.725Z,8.60
2022-11-16T15:17:31.943Z,8.61
2022-11-16T15:20:02.576Z,8.50
2022-11-16T15:22:31.887Z,8.56
2022-11-16T15:25:00.843Z,8.56
2022-11-16T15:27:28.083Z,8.53
2022-11-16T15:29:55.000Z,8.55
2022-11-16T15:32:21.850Z,8.55
2022-11-16T15:34:53.143Z,8.56
2022-11-16T15:37:30.089Z,8.59
2022-11-16T15:39:58.567Z,8.56
2022-11-16T15:42:28.169Z,8.58
2022-11-16T15:44:56.157Z,8.58
2022-11-16T15:47:23.656Z,8.56
2022-11-16T15:49:53.070Z,8.54
2022-11-16T15:52:43.457Z,8.52
2022-11-16T15:55:31.947Z,8.55
2022-11-16T15:58:07.816Z,8.55
2022-11-16T16:00:37.036Z,8.52
2022-11-16T16:03:24.319Z,8.50
2022-11-16T16:05:52.728Z,8.51
2022-11-16T16:08:36.356Z,8.51
2022-11-16T16:11:27.344Z,8.48
2022-11-16T16:14:00.163Z,8.46
2022-11-16T16:16:38.298Z,8.44
2022-11-16T16:19:23.575Z,8.51
2022-11-16T16:21:50.611Z,8.48
2022-11-16T16:24:46.302Z,8.43
2022-11-16T16:27:15.002Z,8.46
2022-11-16T16:29:42.127Z,8.44
2022-11-16T16:32:16.160Z,8.44
2022-11-16T16:34:43.013Z,8.43
2022-11-16T16:37:13.018Z,8.36
2022-11-16T16:39:41.007Z,8.43
2022-11-16T16:42:10.643Z,8.40
2022-11-16T16:44:37.809Z,8.40
2022-11-16T16:47:04.915Z,8.37
2022-11-16T16:49:31.783Z,8.37
2022-11-16T16:51:58.712Z,8.37
2022-11-16T16:54:25.663Z,8.43
2022-11-16T16:56:52.508Z,8.42
2022-11-16T16:59:19.352Z,8.39
2022-11-16T17:01:46.282Z,8.39
2022-11-16T17:04:13.031Z,8.42
2022-11-16T17:06:46.204Z,8.41
2022-11-16T17:09:14.038Z,8.30
2022-11-16T17:11:40.868Z,8.29
2022-11-16T17:14:08.560Z,8.43
2022-11-16T17:16:36.357Z,8.40
2022-11-16T17:19:04.431Z,8.43
2022-11-16T17:21:32.228Z,8.42
2022-11-16T17:23:59.328Z,8.39
2022-11-16T17:26:29.523Z,8.34
2022-11-16T17:28:57.573Z,8.41
2022-11-16T17:31:25.861Z,8.43
2022-11-16T17:33:53.188Z,8.37
2022-11-16T17:36:20.590Z,8.37
2022-11-16T17:38:47.505Z,8.31
2022-11-16T17:41:17.314Z,8.40
2022-11-16T17:43:46.046Z,8.41
2022-11-16T17:46:18.720Z,8.43
2022-11-16T17:48:47.461Z,8.39
2022-11-16T17:51:17.212Z,8.31
2022-11-16T17:53:44.753Z,8.35
2022-11-16T17:56:14.305Z,8.37
2022-11-16T17:58:42.266Z,8.36
2022-11-16T18:01:09.543Z,8.28
2022-11-16T18:03:37.821Z,8.33
2022-11-16T18:06:08.064Z,8.35
2022-11-16T18:08:36.891Z,8.35
2022-11-16T18:11:18.346Z,8.35
2022-11-16T18:13:46.206Z,8.35
2022-11-16T18:16:19.537Z,8.27
2022-11-16T18:18:47.969Z,8.32
2022-11-16T18:21:20.773Z,8.35
2022-11-16T18:23:48.646Z,8.31
2022-11-16T18:26:19.630Z,8.24
2022-11-16T18:28:48.460Z,8.26
2022-11-16T18:31:18.102Z,8.25
2022-11-16T18:33:45.951Z,8.28
2022-11-16T18:36:13.681Z,8.24
2022-11-16T18:38:41.004Z,8.17
2022-11-16T18:41:14.510Z,8.13
2022-11-16T18:43:47.891Z,8.29
2022-11-16T18:46:15.339Z,8.29
2022-11-16T18:48:43.861Z,8.28
2022-11-16T18:51:11.912Z,8.28
2022-11-16T18:53:39.312Z,8.24
2022-11-16T18:56:06.823Z,8.31
2022-11-16T18:58:50.797Z,8.27
2022-11-16T19:01:24.494Z,8.27
2022-11-16T19:03:53.610Z,8.27
2022-11-16T19:06:21.052Z,8.24
2022-11-16T19:08:56.037Z,8.24
2022-11-16T19:11:27.599Z,8.16
2022-11-16T19:13:57.506Z,8.25
2022-11-16T19:16:25.553Z,8.25
2022-11-16T19:18:53.282Z,8.28
2022-11-16T19:21:22.353Z,8.27
2022-11-16T19:23:52.412Z,8.25
2022-11-16T19:26:21.465Z,8.29
2022-11-16T19:28:50.401Z,8.29
2022-11-16T19:31:19.110Z,8.31
2022-11-16T19:33:46.728Z,8.31
2022-11-16T19:36:19.289Z,8.31
2022-11-16T19:38:48.363Z,8.34
2022-11-16T19:41:18.409Z,8.33
2022-11-16T19:43:45.692Z,8.33
2022-11-16T19:46:19.749Z,8.33
2022-11-16T19:48:49.383Z,8.32
2022-11-16T19:51:19.740Z,8.27
2022-11-16T19:53:47.447Z,8.29
2022-11-16T19:56:16.419Z,8.30
2022-11-16T19:58:43.822Z,8.29
2022-11-16T20:01:17.547Z,8.28
2022-11-16T20:03:46.000Z,8.27
2022-11-16T20:06:16.143Z,8.24
2022-11-16T20:08:48.545Z,8.23
2022-11-16T20:11:43.276Z,8.17
2022-11-16T20:14:12.840Z,8.21
2022-11-16T20:16:46.275Z,8.23
2022-11-16T20:19:13.630Z,8.24
2022-11-16T20:21:44.020Z,8.20
2022-11-16T20:24:14.107Z,8.14
2022-11-16T20:26:48.362Z,8.10
2022-11-16T20:29:17.971Z,8.19
2022-11-16T20:31:46.348Z,8.13
2022-11-16T20:34:16.069Z,8.10
2022-11-16T20:36:45.737Z,8.23
2022-11-16T20:39:29.349Z,8.19
2022-11-16T20:41:56.713Z,8.19
2022-11-16T20:44:23.850Z,8.19
2022-11-16T20:46:52.865Z,8.21
2022-11-16T20:49:19.790Z,8.23
2022-11-16T20:51:47.833Z,8.21
2022-11-16T20:54:15.334Z,8.25
2022-11-16T20:56:42.525Z,8.28
2022-11-16T20:59:09.686Z,8.28
2022-11-16T21:01:37.285Z,8.19
2022-11-16T21:04:06.295Z,8.18
2022-11-16T21:06:33.730Z,8.26
2022-11-16T21:09:01.961Z,8.30
2022-11-16T21:11:31.206Z,8.30
2022-11-16T21:14:16.333Z,8.31
2022-11-16T21:16:43.585Z,8.31
2022-11-16T21:19:11.717Z,8.20
2022-11-16T21:21:40.647Z,8.27
2022-11-16T21:24:10.792Z,8.22
2022-11-16T21:26:38.066Z,8.28
2022-11-16T21:29:05.377Z,8.28
2022-11-16T21:31:34.218Z,8.28
2022-11-16T21:34:01.337Z,8.29
2022-11-16T21:36:30.325Z,8.17
2022-11-16T21:39:00.551Z,8.16
2022-11-16T21:41:27.761Z,8.27
2022-11-16T21:43:54.811Z,8.20
2022-11-16T21:46:24.844Z,8.27
2022-11-16T21:48:52.909Z,8.16
2022-11-16T21:51:21.926Z,8.19
2022-11-16T21:53:48.938Z,8.17
2022-11-16T21:56:18.272Z,8.18
2022-11-16T21:58:46.703Z,8.17
2022-11-16T22:01:16.102Z,8.20
2022-11-16T22:03:44.667Z,8.19
2022-11-16T22:06:34.346Z,8.19
2022-11-16T22:09:01.586Z,8.16
2022-11-16T22:11:28.430Z,8.17
2022-11-16T22:13:55.276Z,8.11
2022-11-16T22:16:25.004Z,8.03
2022-11-16T22:18:51.857Z,8.04
2022-11-16T22:21:18.684Z,8.02
2022-11-16T22:23:45.535Z,7.96
2022-11-16T22:26:14.610Z,8.07
2022-11-16T22:28:41.731Z,8.03
2022-11-16T22:31:11.970Z,8.04
2022-11-16T22:33:39.617Z,8.06
2022-11-16T22:36:10.647Z,8.03
2022-11-16T22:38:37.810Z,8.08
2022-11-16T22:41:05.047Z,8.04
2022-11-16T22:43:32.554Z,8.06
2022-11-16T22:46:01.762Z,7.96
2022-11-16T22:48:30.770Z,8.06
2022-11-16T22:51:05.997Z,8.08
2022-11-16T22:53:33.341Z,8.06
2022-11-16T22:56:07.290Z,8.04
2022-11-16T22:58:36.309Z,8.08
2022-11-16T23:01:04.081Z,8.08
2022-11-16T23:03:31.373Z,8.06
2022-11-16T23:05:58.594Z,8.07
2022-11-16T23:08:26.406Z,7.97
2022-11-16T23:11:27.343Z,8.06
2022-11-16T23:14:13.122Z,7.96
2022-11-16T23:16:40.864Z,7.92
2022-11-16T23:19:33.330Z,8.00
2022-11-16T23:22:19.149Z,7.94
2022-11-16T23:25:05.491Z,7.97
2022-11-16T23:27:40.837Z,7.96
2022-11-16T23:30:12.470Z,7.92
2022-11-16T23:32:40.779Z,7.94
2022-11-16T23:35:08.572Z,7.91
2022-11-16T23:37:35.404Z,7.83
2022-11-16T23:40:02.204Z,7.89
2022-11-16T23:42:47.724Z,7.90
2022-11-16T23:45:15.417Z,7.94
2022-11-16T23:47:42.251Z,7.86
2022-11-16T23:50:09.479Z,7.96
2022-11-16T23:52:36.256Z,7.95
2022-11-16T23:55:03.066Z,7.92
2022-11-16T23:57:30.028Z,7.93
2022-11-16T23:59:56.800Z,7.97
